Time;durP1;ratioP1;P1;durP2;ratioP2;P2;SDS_P1;SDS_P2;PMS_P1;PMS_P2;Temp;Humidity;BMP_temperature;BMP_pressure;BME280_temperature;BME280_humidity;BME280_pressure;Samples;Min_cycle;Max_cycle;Signal;HPM_P1;HPM_P2
2023/05/29 00:01:31;;;;;;;5.75;0.68;;;;;;;24.32;41.02;99676.53;7313849;19;128940;-35
2023/05/29 00:03:56;;;;;;;68.85;4.03;;;;;;;24.34;41.30;99679.84;7311861;19;128916;-31
2023/05/29 00:06:22;;;;;;;25.45;1.42;;;;;;;24.37;41.07;99685.59;7314601;19;129705;-39
2023/05/29 00:08:47;;;;;;;1.40;0.20;;;;;;;24.38;40.96;99686.41;7314533;19;129583;-35
2023/05/29 00:11:13;;;;;;;27.97;1.63;;;;;;;24.37;41.08;99690.88;7313444;19;128935;-30
2023/05/29 00:13:38;;;;;;;40.60;2.17;;;;;;;24.38;40.73;99692.50;7313968;19;129072;-41
2023/05/29 00:16:04;;;;;;;8.20;0.60;;;;;;;24.35;41.44;99690.19;7314120;19;131185;-30
2023/05/29 00:18:29;;;;;;;24.60;1.30;;;;;;;24.40;40.90;99679.19;7314595;19;130319;-31
2023/05/29 00:20:55;;;;;;;38.22;2.20;;;;;;;24.41;40.90;99680.88;7313682;19;128998;-32
2023/05/29 00:23:21;;;;;;;37.70;2.13;;;;;;;24.39;41.42;99683.63;7313080;19;129093;-32
2023/05/29 00:25:46;;;;;;;21.63;1.38;;;;;;;24.39;41.33;99680.19;7314601;19;129321;-33
2023/05/29 00:28:12;;;;;;;18.97;1.17;;;;;;;24.27;41.06;99656.00;7313933;19;130243;-33
2023/05/29 00:30:38;;;;;;;40.53;2.17;;;;;;;24.36;41.50;99676.06;7314411;19;129143;-32
2023/05/29 00:33:04;;;;;;;35.77;2.13;;;;;;;24.36;41.01;99676.06;7311727;19;129230;-34
2023/05/29 00:35:29;;;;;;;29.37;1.77;;;;;;;24.35;40.62;99677.06;7313855;19;130082;-37
2023/05/29 00:37:55;;;;;;;21.10;1.23;;;;;;;24.44;40.96;99685.81;7314328;19;130404;-34
2023/05/29 00:40:20;;;;;;;27.93;1.70;;;;;;;24.30;40.95;99662.72;7313558;19;129196;-32
2023/05/29 00:42:45;;;;;;;34.67;2.08;;;;;;;24.37;40.75;99682.97;7311578;19;129345;-36
2023/05/29 00:45:12;;;;;;;20.07;1.20;;;;;;;24.42;41.26;99680.72;7313808;19;130628;-34
2023/05/29 00:47:38;;;;;;;5.43;0.50;;;;;;;24.40;40.91;99673.94;7313724;19;130392;-32
2023/05/29 00:50:04;;;;;;;38.13;2.13;;;;;;;24.39;40.93;99670.50;7313188;19;129106;-34
2023/05/29 00:52:30;;;;;;;28.47;1.67;;;;;;;24.38;41.26;99671.47;7309270;19;128808;-38
2023/05/29 00:54:56;;;;;;;22.40;1.40;;;;;;;24.39;40.79;99674.94;7313183;19;130262;-30
2023/05/29 00:57:23;;;;;;;23.10;1.33;;;;;;;24.37;40.63;99669.84;7312468;19;129147;-33
2023/05/29 00:59:50;;;;;;;36.38;2.15;;;;;;;24.38;41.26;99670.66;7313469;19;129621;-29
2023/05/29 01:02:16;;;;;;;27.27;1.67;;;;;;;24.35;41.01;99677.06;7317420;19;130650;-33
2023/05/29 01:04:44;;;;;;;14.83;0.97;;;;;;;24.38;40.97;99671.47;7317188;19;130633;-33
2023/05/29 01:07:09;;;;;;;23.02;1.35;;;;;;;24.40;40.90;99661.66;7318950;19;130203;-32
2023/05/29 01:09:36;;;;;;;40.73;2.30;;;;;;;24.34;41.26;99664.91;7319065;19;129478;-35
2023/05/29 01:12:36;;;;;;;27.35;1.60;;;;;;;24.36;41.09;99662.13;7318183;19;128707;-33
2023/05/29 01:15:28;;;;;;;39.65;2.28;;;;;;;24.39;40.99;99665.22;7318315;19;129404;-33
2023/05/29 01:17:59;;;;;;;38.97;2.05;;;;;;;24.42;41.00;99672.84;7319250;19;129146;-33
2023/05/29 01:20:41;;;;;;;22.30;1.30;;;;;;;24.36;41.20;99665.56;7320599;19;129551;-36
2023/05/29 01:23:29;;;;;;;21.63;1.27;;;;;;;24.37;41.21;99667.22;7316892;19;129089;-37
2023/05/29 01:26:06;;;;;;;23.60;1.53;;;;;;;24.32;40.86;99666.84;7319208;19;129451;-36
2023/05/29 01:28:37;;;;;;;21.60;1.27;;;;;;;24.38;40.88;99660.13;7318764;19;129828;-33
2023/05/29 01:31:04;;;;;;;27.63;1.48;;;;;;;24.40;41.20;99674.78;7318831;19;129369;-33
2023/05/29 01:33:29;;;;;;;;;;;;;;;24.31;41.23;99662.56;7319788;19;128876;-30
2023/05/29 01:35:55;;;;;;;33.45;2.00;;;;;;;24.42;41.21;99675.47;7318471;19;129512;-29
2023/05/29 01:38:20;;;;;;;21.23;1.25;;;;;;;24.40;41.20;99680.03;7319182;19;129133;-30
2023/05/29 01:40:46;;;;;;;27.80;1.63;;;;;;;24.40;40.65;99673.94;7318803;19;128921;-37
2023/05/29 01:43:13;;;;;;;36.80;2.10;;;;;;;24.28;41.10;99660.25;7316208;19;130472;-35
2023/05/29 01:45:39;;;;;;;24.90;1.50;;;;;;;24.35;40.55;99678.84;7318601;19;129564;-34
2023/05/29 01:48:05;;;;;;;23.23;1.37;;;;;;;24.36;41.30;99668.19;7317382;19;129412;-30
2023/05/29 01:50:31;;;;;;;28.55;1.65;;;;;;;24.37;41.15;99661.97;7318661;19;129235;-33
2023/05/29 01:52:56;;;;;;;48.20;2.53;;;;;;;24.38;40.95;99668.00;7316919;19;129605;-30
2023/05/29 01:55:22;;;;;;;28.10;1.73;;;;;;;24.39;40.79;99667.06;7318291;19;129577;-40
2023/05/29 01:57:48;;;;;;;17.63;1.10;;;;;;;24.38;40.60;99671.47;7318671;19;130686;-32
2023/05/29 02:00:16;;;;;;;;;;;;;;;24.41;41.27;99671.16;7319297;19;128790;-36
2023/05/29 02:02:41;;;;;;;37.78;2.05;;;;;;;24.39;40.57;99667.84;7315663;19;129292;-30
2023/05/29 02:05:08;;;;;;;25.60;1.60;;;;;;;24.40;40.64;99664.28;7317483;19;129454;-34
2023/05/29 02:07:39;;;;;;;;;;;;;;;24.38;40.92;99671.47;7318901;19;129582;-31
2023/05/29 02:10:05;;;;;;;25.10;1.48;;;;;;;24.39;40.46;99670.50;7317495;19;128792;-35
2023/05/29 02:12:31;;;;;;;33.87;2.00;;;;;;;24.43;40.87;99678.88;7313569;19;129040;-37
2023/05/29 02:14:56;;;;;;;24.30;1.53;;;;;;;24.37;41.29;99669.84;7317551;19;130657;-32
2023/05/29 02:17:22;;;;;;;26.73;1.55;;;;;;;24.39;40.60;99672.31;7317560;19;130788;-36
2023/05/29 02:19:47;;;;;;;30.53;1.90;;;;;;;24.40;40.64;99672.16;7317485;19;128852;-32
2023/05/29 02:22:12;;;;;;;42.57;2.23;;;;;;;24.40;40.65;99673.94;7315793;19;129186;-36
2023/05/29 02:24:38;;;;;;;8.73;0.80;;;;;;;24.37;41.04;99677.72;7315184;19;129016;-32
2023/05/29 02:27:03;;;;;;;24.93;1.60;;;;;;;24.39;40.75;99682.81;7317681;19;130456;-32
2023/05/29 02:29:29;;;;;;;21.10;1.48;;;;;;;24.39;40.54;99681.00;7317322;19;129004;-36
2023/05/29 02:31:54;;;;;;;43.13;2.63;;;;;;;24.39;40.97;99678.38;7315865;19;128974;-33
2023/05/29 02:34:22;;;;;;;27.37;1.53;;;;;;;24.33;40.45;99660.59;7317115;19;131294;-29
2023/05/29 02:36:48;;;;;;;3.70;0.60;;;;;;;24.31;41.19;99667.81;7317242;19;130336;-32
2023/05/29 02:39:13;;;;;;;24.90;1.47;;;;;;;24.41;40.63;99681.69;7316903;19;128889;-39
2023/05/29 02:41:38;;;;;;;40.17;2.27;;;;;;;24.45;41.08;99698.78;7315891;19;128941;-36
2023/05/29 02:44:04;;;;;;;38.60;2.40;;;;;;;24.38;41.29;99697.75;7315462;19;129408;-31
2023/05/29 02:46:29;;;;;;;21.60;1.50;;;;;;;24.30;41.15;99679.31;7316598;19;130330;-39
2023/05/29 02:48:55;;;;;;;29.97;1.87;;;;;;;24.39;40.95;99704.66;7316887;19;128833;-29
2023/05/29 02:51:20;;;;;;;35.83;2.10;;;;;;;24.38;40.90;99710.91;7316262;19;130663;-35
2023/05/29 02:53:45;;;;;;;33.07;1.93;;;;;;;24.34;40.71;99711.38;7316427;19;129586;-39
2023/05/29 02:56:12;;;;;;;6.35;0.63;;;;;;;24.39;41.05;99714.34;7312912;19;129089;-31
2023/05/29 02:58:37;;;;;;;50.22;2.83;;;;;;;24.42;40.72;99720.13;7316186;19;129793;-31
2023/05/29 03:01:04;;;;;;;39.93;2.27;;;;;;;24.39;41.02;99722.25;7315668;19;129886;-33
2023/05/29 03:03:30;;;;;;;25.67;1.83;;;;;;;24.40;40.67;99724.72;7316671;19;129633;-29
2023/05/29 03:05:55;;;;;;;41.10;2.37;;;;;;;24.30;41.20;99713.47;7315321;19;130224;-32
2023/05/29 03:08:20;;;;;;;39.40;2.27;;;;;;;24.41;40.94;99721.09;7315164;19;129751;-32
2023/05/29 03:10:47;;;;;;;28.97;1.73;;;;;;;24.42;41.03;99725.41;7316734;19;129034;-32
2023/05/29 03:13:13;;;;;;;19.33;1.23;;;;;;;24.48;41.15;99731.81;7313959;19;130862;-38
2023/05/29 03:15:38;;;;;;;1.10;0.30;;;;;;;24.43;40.95;99732.28;7315695;19;129125;-35
2023/05/29 03:18:03;;;;;;;41.07;2.43;;;;;;;24.41;40.63;99728.97;7316294;19;129112;-30
2023/05/29 03:20:29;;;;;;;5.00;0.50;;;;;;;24.44;41.19;99720.78;7316946;19;129024;-37
2023/05/29 03:22:54;;;;;;;26.43;1.70;;;;;;;24.43;40.95;99726.19;7313424;19;129571;-33
2023/05/29 03:25:21;;;;;;;19.43;1.37;;;;;;;24.43;40.57;99721.78;7315500;19;130084;-32
2023/05/29 03:27:47;;;;;;;38.33;2.30;;;;;;;24.43;40.84;99736.72;7315138;19;129096;-41
2023/05/29 03:30:12;;;;;;;35.83;2.00;;;;;;;24.27;40.88;99713.78;7315661;19;128936;-36
2023/05/29 03:32:38;;;;;;;24.60;1.47;;;;;;;24.41;41.35;99722.91;7312484;19;129511;-28
2023/05/29 03:35:03;;;;;;;15.52;1.20;;;;;;;24.41;41.18;99728.19;7314060;19;130929;-35
2023/05/29 03:37:29;;;;;;;38.03;2.17;;;;;;;24.44;41.06;99723.41;7315444;19;128776;-40
2023/05/29 03:39:55;;;;;;;4.83;0.67;;;;;;;24.42;40.65;99729.81;7316031;19;128948;-35
2023/05/29 03:42:20;;;;;;;20.87;1.27;;;;;;;24.42;41.11;99733.28;7313145;19;128920;-30
2023/05/29 03:44:46;;;;;;;28.57;1.87;;;;;;;24.40;40.64;99729.13;7311770;19;129345;-32
2023/05/29 03:47:11;;;;;;;39.40;2.33;;;;;;;24.45;41.23;99735.59;7315179;19;129009;-36
2023/05/29 03:49:37;;;;;;;1.17;0.40;;;;;;;24.38;41.26;99739.81;7315230;19;128760;-33
2023/05/29 03:52:02;;;;;;;22.40;1.45;;;;;;;24.43;40.70;99732.28;7313671;19;130095;-33
2023/05/29 03:54:28;;;;;;;53.83;3.07;;;;;;;24.43;40.89;99734.06;7313760;19;130312;-35
2023/05/29 03:56:53;;;;;;;28.30;1.73;;;;;;;24.43;40.63;99737.53;7314481;19;128781;-30
2023/05/29 03:59:18;;;;;;;21.17;1.33;;;;;;;24.43;41.21;99734.91;7315334;19;129550;-31
2023/05/29 04:01:44;;;;;;;28.13;1.97;;;;;;;24.39;41.04;99735.38;7312213;19;130215;-37
2023/05/29 04:04:09;;;;;;;37.93;2.30;;;;;;;24.34;40.84;99727.97;7312200;19;129196;-32
2023/05/29 04:06:38;;;;;;;44.57;2.47;;;;;;;24.37;40.46;99734.72;7313804;19;129165;-32
2023/05/29 04:09:06;;;;;;;21.88;1.60;;;;;;;24.40;40.64;99734.41;7314299;19;128871;-33
2023/05/29 04:11:35;;;;;;;18.92;1.25;;;;;;;24.42;40.95;99740.31;7312318;19;130114;-27
2023/05/29 04:14:01;;;;;;;59.58;3.70;;;;;;;24.39;40.55;99751.97;7313309;19;129601;-37
2023/05/29 04:16:28;;;;;;;53.43;2.97;;;;;;;24.39;40.67;99751.97;7313136;19;128908;-36
2023/05/29 04:18:53;;;;;;;25.67;1.63;;;;;;;24.43;40.89;99763.00;7314157;19;129750;-31
2023/05/29 04:21:18;;;;;;;20.33;1.33;;;;;;;24.44;41.25;99760.22;7313980;19;130553;-31
2023/05/29 04:23:43;;;;;;;58.90;3.23;;;;;;;24.42;41.23;99767.44;7312621;19;129853;-40
2023/05/29 04:26:10;;;;;;;30.77;1.83;;;;;;;24.36;41.13;99762.78;7313994;19;130267;-36
2023/05/29 04:28:37;;;;;;;22.95;1.42;;;;;;;24.38;40.74;99760.84;7314706;19;129468;-34
2023/05/29 04:31:03;;;;;;;32.95;1.95;;;;;;;24.40;41.06;99760.69;7313388;19;130143;-30
2023/05/29 04:33:29;;;;;;;38.10;2.20;;;;;;;24.35;41.01;99749.78;7314274;19;129693;-30
2023/05/29 04:35:54;;;;;;;27.47;1.70;;;;;;;24.40;41.10;99772.03;7312868;19;128794;-36
2023/05/29 04:38:24;;;;;;;19.53;1.33;;;;;;;24.40;40.83;99764.13;7314120;19;129022;-33
2023/05/29 04:40:50;;;;;;;22.23;1.45;;;;;;;24.31;40.65;99757.16;7313703;19;130601;-34
2023/05/29 04:43:16;;;;;;;41.47;2.50;;;;;;;24.44;40.94;99786.50;7312670;19;129255;-33
2023/05/29 04:45:42;;;;;;;28.37;1.63;;;;;;;24.37;40.82;99774.13;7313231;19;128795;-37
2023/05/29 04:48:08;;;;;;;21.70;1.50;;;;;;;24.41;41.18;99776.28;7313314;19;129114;-31
2023/05/29 04:50:34;;;;;;;21.53;1.43;;;;;;;24.44;40.79;99772.53;7312216;19;129219;-36
2023/05/29 04:52:59;;;;;;;34.72;1.95;;;;;;;24.45;40.87;99775.00;7310302;19;130332;-33
2023/05/29 04:55:25;;;;;;;0.40;0.40;;;;;;;24.42;41.25;99782.38;7311833;19;128870;-35
2023/05/29 04:57:51;;;;;;;23.03;1.40;;;;;;;24.41;41.11;99776.28;7312516;19;129479;-35
2023/05/29 05:00:18;;;;;;;25.17;1.53;;;;;;;24.44;40.84;99786.50;7312255;19;129073;-30
2023/05/29 05:02:44;;;;;;;21.65;1.30;;;;;;;24.43;40.91;99779.59;7310508;19;130385;-38
2023/05/29 05:05:09;;;;;;;56.57;3.23;;;;;;;24.48;40.59;99786.22;7309843;19;129101;-33
2023/05/29 05:07:35;;;;;;;27.37;1.50;;;;;;;24.45;41.18;99782.91;7312743;19;128933;-33
2023/05/29 05:10:01;;;;;;;19.17;1.23;;;;;;;24.31;40.93;99762.41;7312428;19;129135;-34
2023/05/29 05:12:26;;;;;;;67.93;3.77;;;;;;;24.45;40.51;99782.91;7309736;19;129127;-36
2023/05/29 05:14:51;;;;;;;24.67;1.57;;;;;;;24.31;40.38;99759.78;7312739;19;129234;-31
2023/05/29 05:17:17;;;;;;;23.27;1.47;;;;;;;24.43;41.23;99776.13;7312239;19;128944;-36
2023/05/29 05:19:42;;;;;;;35.95;2.17;;;;;;;24.40;41.26;99779.91;7312140;19;130579;-37
2023/05/29 05:22:08;;;;;;;38.20;2.13;;;;;;;24.42;40.55;99772.69;7310806;19;129170;-36
2023/05/29 05:24:34;;;;;;;30.70;2.00;;;;;;;24.40;41.26;99773.81;7310244;19;129153;-34
2023/05/29 05:26:59;;;;;;;24.27;1.38;;;;;;;24.39;40.90;99782.69;7312535;19;129318;-31
2023/05/29 05:29:25;;;;;;;32.33;1.87;;;;;;;24.41;41.14;99781.53;7312001;19;129112;-33
2023/05/29 05:31:50;;;;;;;33.17;1.87;;;;;;;24.31;40.87;99772.94;7311394;19;128996;-29
2023/05/29 05:34:16;;;;;;;19.97;1.20;;;;;;;24.34;41.32;99775.28;7311392;19;129802;-39
2023/05/29 05:36:41;;;;;;;22.57;1.47;;;;;;;24.43;41.08;99779.59;7311661;19;129194;-36
2023/05/29 05:39:06;;;;;;;35.17;2.07;;;;;;;24.36;41.19;99783.81;7311765;19;128987;-32
2023/05/29 05:41:32;;;;;;;24.93;1.50;;;;;;;24.42;40.72;99785.84;7310681;19;130327;-35
2023/05/29 05:43:57;;;;;;;53.63;3.50;;;;;;;24.43;40.44;99787.47;7309921;19;129010;-37
2023/05/29 05:46:22;;;;;;;29.77;1.77;;;;;;;24.44;41.16;99790.94;7310993;19;129464;-36
2023/05/29 05:48:48;;;;;;;47.83;2.73;;;;;;;24.43;40.96;99784.84;7317628;19;129562;-34
2023/05/29 05:51:13;;;;;;;27.40;1.67;;;;;;;24.42;41.00;99796.34;7318633;19;129162;-32
2023/05/29 05:53:39;;;;;;;21.27;1.30;;;;;;;24.45;40.53;99793.41;7318775;19;128864;-30
2023/05/29 05:56:04;;;;;;;26.30;1.67;;;;;;;24.34;41.14;99774.44;7317020;19;128845;-36
2023/05/29 05:58:30;;;;;;;49.10;2.77;;;;;;;24.41;40.81;99789.44;7318149;19;129076;-37
2023/05/29 06:00:57;;;;;;;24.33;1.50;;;;;;;24.36;41.05;99799.56;7318786;19;130475;-32
2023/05/29 06:03:22;;;;;;;3.53;0.60;;;;;;;24.27;41.26;99784.72;7318464;19;129071;-32
2023/05/29 06:05:48;;;;;;;27.37;1.80;;;;;;;24.41;40.94;99807.03;7317497;19;129500;-37
2023/05/29 06:08:15;;;;;;;48.05;2.58;;;;;;;24.40;41.23;99800.94;7317936;19;130121;-33
2023/05/29 06:10:40;;;;;;;;;;;;;;;24.36;40.70;99799.56;7318738;19;131425;-35
2023/05/29 06:13:05;;;;;;;26.23;1.73;;;;;;;24.38;40.81;99797.63;7315724;19;129085;-33
2023/05/29 06:15:30;;;;;;;34.40;1.90;;;;;;;24.39;40.89;99809.78;7316977;19;129250;-34
2023/05/29 06:17:56;;;;;;;34.13;2.10;;;;;;;24.42;40.63;99804.25;7318796;19;129572;-32
2023/05/29 06:20:23;;;;;;;26.50;1.67;;;;;;;24.40;41.18;99803.56;7317375;19;129039;-34
2023/05/29 06:22:50;;;;;;;22.25;1.45;;;;;;;24.41;41.14;99813.09;7316740;19;129669;-37
2023/05/29 06:25:16;;;;;;;32.38;1.90;;;;;;;24.41;40.63;99812.28;7314220;19;128999;-35
2023/05/29 06:27:42;;;;;;;18.42;1.20;;;;;;;24.44;40.78;99812.78;7316875;19;129017;-33
2023/05/29 06:30:08;;;;;;;47.77;2.77;;;;;;;24.31;40.48;99795.78;7317515;19;130914;-37
2023/05/29 06:32:33;;;;;;;20.73;1.30;;;;;;;24.44;40.95;99814.59;7315199;19;129197;-32
2023/05/29 06:34:58;;;;;;;39.20;2.33;;;;;;;24.43;40.73;99816.38;7316019;19;128939;-37
2023/05/29 06:37:24;;;;;;;11.93;0.93;;;;;;;24.42;40.55;99814.75;7316396;19;129427;-33
2023/05/29 06:39:49;;;;;;;26.77;1.60;;;;;;;24.42;40.60;99806.88;7316808;19;129085;-34
2023/05/29 06:42:15;;;;;;;31.00;1.83;;;;;;;24.40;41.05;99811.44;7314832;19;128900;-28
2023/05/29 06:44:40;;;;;;;39.00;2.20;;;;;;;24.41;40.82;99815.72;7314901;19;129103;-34
2023/05/29 06:47:06;;;;;;;34.90;2.05;;;;;;;24.45;40.55;99819.69;7317087;19;129119;-39
2023/05/29 06:49:31;;;;;;;29.07;1.77;;;;;;;24.40;41.19;99813.25;7316321;19;130151;-37
2023/05/29 06:51:57;;;;;;;23.47;1.47;;;;;;;24.37;40.90;99810.91;7314922;19;129072;-32
2023/05/29 06:54:22;;;;;;;48.08;2.75;;;;;;;24.37;41.27;99811.75;7315703;19;130215;-39
2023/05/29 06:56:47;;;;;;;26.70;1.73;;;;;;;24.39;40.63;99825.53;7316190;19;129808;-36
2023/05/29 06:59:13;;;;;;;10.50;0.87;;;;;;;24.41;41.01;99822.78;7315994;19;130294;-35
2023/05/29 07:01:38;;;;;;;25.50;1.40;;;;;;;24.42;40.89;99817.38;7315288;19;128766;-35
2023/05/29 07:04:03;;;;;;;47.93;2.87;;;;;;;24.31;40.80;99814.97;7315545;19;129762;-32
2023/05/29 07:06:29;;;;;;;21.00;1.40;;;;;;;24.41;40.86;99820.16;7316404;19;129793;-29
2023/05/29 07:08:54;;;;;;;43.97;2.47;;;;;;;24.29;41.16;99809.06;7316237;19;130345;-32
2023/05/29 07:11:20;;;;;;;41.97;2.40;;;;;;;24.40;41.33;99832.47;7314915;19;128861;-34
2023/05/29 07:13:45;;;;;;;37.30;2.37;;;;;;;24.42;41.03;99832.31;7316859;19;129070;-32
2023/05/29 07:16:11;;;;;;;27.20;1.80;;;;;;;24.38;40.98;99829.16;7316214;19;130265;-34
2023/05/29 07:18:36;;;;;;;20.23;1.50;;;;;;;24.42;40.58;99837.56;7315934;19;129414;-36
2023/05/29 07:21:02;;;;;;;42.07;2.27;;;;;;;24.42;41.32;99829.69;7315646;19;129155;-33
2023/05/29 07:23:27;;;;;;;29.47;1.77;;;;;;;24.46;40.79;99831.84;7316441;19;129541;-31
2023/05/29 07:25:52;;;;;;;26.98;1.67;;;;;;;24.44;41.15;99830.38;7312013;19;129209;-37
2023/05/29 07:28:18;;;;;;;23.63;1.55;;;;;;;24.39;40.94;99830.81;7315776;19;129167;-33
2023/05/29 07:30:43;;;;;;;40.70;2.23;;;;;;;24.36;41.05;99831.09;7315505;19;129055;-35
2023/05/29 07:33:09;;;;;;;20.40;1.30;;;;;;;24.31;40.63;99817.59;7313560;19;129653;-38
2023/05/29 07:35:34;;;;;;;21.70;1.40;;;;;;;24.39;41.18;99836.06;7315058;19;130266;-31
2023/05/29 07:38:00;;;;;;;20.60;1.30;;;;;;;24.45;40.93;99839.88;7316024;19;130578;-34
2023/05/29 07:40:26;;;;;;;29.07;1.87;;;;;;;24.41;40.74;99834.09;7314958;19;128810;-38
2023/05/29 07:42:51;;;;;;;19.87;1.23;;;;;;;24.38;41.20;99841.47;7313029;19;128913;-34
2023/05/29 07:45:16;;;;;;;22.70;1.45;;;;;;;24.44;40.87;99839.06;7312222;19;130100;-31
2023/05/29 07:47:42;;;;;;;21.93;1.27;;;;;;;24.42;41.18;99843.66;7315308;19;129693;-35
2023/05/29 07:50:09;;;;;;;38.95;2.15;;;;;;;24.41;40.83;99842.00;7314964;19;129184;-35
2023/05/29 07:52:34;;;;;;;21.15;1.25;;;;;;;24.39;41.03;99843.94;7313816;19;128911;-33
2023/05/29 07:55:01;;;;;;;29.53;1.83;;;;;;;24.43;41.15;99853.19;7312571;19;129278;-36
2023/05/29 07:57:27;;;;;;;26.23;1.58;;;;;;;24.43;40.77;99847.94;7314508;19;130270;-31
2023/05/29 07:59:52;;;;;;;63.40;3.37;;;;;;;24.41;41.26;99844.63;7314516;19;129467;-38
2023/05/29 08:02:18;;;;;;;32.60;1.93;;;;;;;24.43;40.81;99850.56;7313088;19;128945;-35
2023/05/29 08:04:43;;;;;;;45.50;2.33;;;;;;;24.40;41.25;99853.50;7311944;19;129514;-34
2023/05/29 08:07:08;;;;;;;27.93;1.63;;;;;;;24.36;41.01;99843.44;7313462;19;129589;-35
2023/05/29 08:09:35;;;;;;;40.37;2.37;;;;;;;24.40;40.58;99850.88;7312416;19;129479;-38
2023/05/29 08:12:00;;;;;;;;;;;;;;;24.41;40.38;99849.88;7312976;19;129107;-34
2023/05/29 08:14:26;;;;;;;21.73;1.40;;;;;;;24.41;41.39;99849.88;7313461;19;130883;-35
2023/05/29 08:16:51;;;;;;;24.57;1.57;;;;;;;24.43;40.89;99855.81;7313391;19;130322;-34
2023/05/29 08:19:17;;;;;;;31.83;1.83;;;;;;;24.43;40.85;99847.09;7314954;19;128866;-32
2023/05/29 08:21:42;;;;;;;22.13;1.30;;;;;;;24.42;40.79;99851.53;7312636;19;129055;-35
2023/05/29 08:24:08;;;;;;;13.75;1.23;;;;;;;24.28;41.22;99838.09;7313120;19;130192;-32
2023/05/29 08:26:34;;;;;;;37.33;2.03;;;;;;;24.46;41.37;99854.69;7312937;19;130306;-33
2023/05/29 08:29:00;;;;;;;25.60;1.55;;;;;;;24.41;41.17;99849.06;7315133;19;128833;-31
2023/05/29 08:31:26;;;;;;;23.83;1.47;;;;;;;24.40;40.89;99858.75;7312664;19;129185;-34
2023/05/29 08:33:52;;;;;;;53.50;3.22;;;;;;;24.43;41.23;99850.56;7313272;19;130039;-34
2023/05/29 08:36:17;;;;;;;47.63;2.67;;;;;;;24.44;40.83;99844.31;7313107;19;130299;-37
2023/05/29 08:38:43;;;;;;;29.30;1.75;;;;;;;24.45;41.16;99851.25;7314056;19;129081;-38
2023/05/29 08:41:15;;;;;;;23.17;1.43;;;;;;;24.40;41.21;99837.72;7313833;19;129538;-35
2023/05/29 08:43:41;;;;;;;22.58;1.40;;;;;;;24.40;40.89;99848.25;7313529;19;130219;-34
2023/05/29 08:46:07;;;;;;;45.47;2.45;;;;;;;24.44;40.56;99839.06;7309959;19;129343;-34
2023/05/29 08:48:35;;;;;;;24.27;1.57;;;;;;;24.47;41.02;99845.81;7314042;19;128943;-35
2023/05/29 08:51:02;;;;;;;25.38;1.38;;;;;;;24.36;40.50;99825.06;7312620;19;129103;-33
2023/05/29 08:53:27;;;;;;;32.40;2.00;;;;;;;24.45;40.74;99838.09;7311565;19;129658;-36
2023/05/29 08:55:55;;;;;;;39.37;2.30;;;;;;;24.33;40.99;99815.66;7312033;19;130259;-33
2023/05/29 08:58:21;;;;;;;29.00;1.55;;;;;;;24.41;40.59;99839.38;7313817;19;128719;-34
2023/05/29 09:00:48;;;;;;;24.50;1.57;;;;;;;24.38;41.05;99844.09;7313223;19;129084;-34
2023/05/29 09:03:13;;;;;;;3.63;0.40;;;;;;;24.43;41.23;99844.47;7310154;19;129509;-35
2023/05/29 09:05:41;;;;;;;40.63;2.27;;;;;;;24.40;41.15;99831.63;7309881;19;129759;-33
2023/05/29 09:08:14;;;;;;;21.40;1.35;;;;;;;24.39;41.15;99833.44;7313400;19;129299;-37
2023/05/29 09:10:41;;;;;;;32.30;1.77;;;;;;;24.39;40.87;99827.38;7312581;19;129443;-37
2023/05/29 09:13:09;;;;;;;;;;;;;;;24.38;40.88;99839.66;7310429;19;130251;-34
2023/05/29 09:15:34;;;;;;;48.00;2.57;;;;;;;24.44;40.37;99841.69;7311714;19;130306;-35
2023/05/29 09:17:59;;;;;;;34.95;2.05;;;;;;;24.42;40.62;99837.56;7312576;19;128873;-38
2023/05/29 09:20:27;;;;;;;27.73;1.73;;;;;;;24.31;40.70;99833.38;7312310;19;129117;-36
2023/05/29 09:23:00;;;;;;;24.67;1.50;;;;;;;24.42;40.87;99841.03;7316275;19;130170;-36
2023/05/29 09:25:30;;;;;;;25.90;1.48;;;;;;;24.39;41.29;99833.44;7316786;19;130305;-33
2023/05/29 09:27:57;;;;;;;40.03;2.20;;;;;;;24.40;40.62;99848.25;7319116;19;129514;-34
2023/05/29 09:30:40;;;;;;;21.83;1.30;;;;;;;24.39;40.88;99849.19;7319885;19;128938;-34
2023/05/29 09:33:07;;;;;;;22.83;1.40;;;;;;;24.45;40.69;99851.25;7317388;19;129852;-35
2023/05/29 09:35:36;;;;;;;22.17;1.35;;;;;;;24.28;40.90;99827.59;7318027;19;129276;-38
2023/05/29 09:38:02;;;;;;;23.02;1.38;;;;;;;24.42;41.09;99848.91;7318841;19;129605;-32
2023/05/29 09:40:32;;;;;;;23.10;1.30;;;;;;;24.44;40.46;99849.56;7319016;19;129288;-32
2023/05/29 09:43:11;;;;;;;24.20;1.52;;;;;;;24.46;41.37;99850.25;7316957;19;129170;-34
2023/05/29 09:45:38;;;;;;;33.20;1.88;;;;;;;24.44;40.83;99849.56;7316679;19;129835;-38
2023/05/29 09:48:05;;;;;;;21.85;1.40;;;;;;;24.42;40.49;99850.72;7318945;19;129371;-35
2023/05/29 09:50:30;;;;;;;;;;;;;;;24.43;40.76;99844.47;7319630;19;128824;-34
2023/05/29 09:52:57;;;;;;;35.92;1.95;;;;;;;24.44;40.93;99841.69;7316778;19;131211;-36
2023/05/29 09:55:26;;;;;;;21.30;1.33;;;;;;;24.41;41.39;99839.38;7317477;19;130405;-35
2023/05/29 09:57:54;;;;;;;26.75;1.63;;;;;;;24.37;41.22;99831.94;7318448;19;129034;-38
2023/05/29 10:00:20;;;;;;;30.95;1.77;;;;;;;24.40;40.54;99837.72;7318516;19;129714;-34
2023/05/29 10:02:45;;;;;;;15.40;0.93;;;;;;;24.31;40.42;99817.59;7316650;19;130204;-36
2023/05/29 10:05:12;;;;;;;18.87;1.17;;;;;;;24.38;41.14;99823.06;7317124;19;130627;-35
2023/05/29 10:07:43;;;;;;;24.02;1.45;;;;;;;24.41;41.13;99833.31;7318467;19;129634;-34
2023/05/29 10:10:11;;;;;;;22.25;1.27;;;;;;;24.43;40.86;99832.16;7317991;19;128923;-34
2023/05/29 10:12:38;;;;;;;46.55;2.72;;;;;;;24.40;41.14;99827.22;7314820;19;129087;-38
2023/05/29 10:15:13;;;;;;;23.90;1.40;;;;;;;24.40;40.65;99835.09;7317407;19;130342;-38
2023/05/29 10:17:47;;;;;;;23.60;1.38;;;;;;;24.44;40.81;99839.06;7319139;19;128894;-36
2023/05/29 10:20:15;;;;;;;20.67;1.17;;;;;;;24.40;40.79;99835.09;7317711;19;128792;-34
2023/05/29 10:22:46;;;;;;;24.23;1.40;;;;;;;24.43;41.19;99839.22;7316220;19;130720;-35
2023/05/29 10:25:13;;;;;;;43.40;2.33;;;;;;;24.42;40.80;99835.78;7315895;19;129301;-33
2023/05/29 10:27:39;;;;;;;24.58;1.48;;;;;;;24.41;41.11;99843.81;7318842;19;128838;-33
2023/05/29 10:30:15;;;;;;;20.80;1.25;;;;;;;24.43;40.99;99834.78;7318114;19;129471;-36
2023/05/29 10:33:05;;;;;;;25.27;1.55;;;;;;;24.43;41.07;99837.41;7313571;19;129032;-34
2023/05/29 10:35:46;;;;;;;27.80;1.67;;;;;;;24.38;41.15;99831.78;7316332;19;129168;-32
2023/05/29 10:38:18;;;;;;;19.17;1.15;;;;;;;24.48;41.02;99833.53;7317290;19;129299;-35
2023/05/29 10:40:44;;;;;;;32.78;1.83;;;;;;;24.40;40.84;99837.72;7317080;19;128696;-35
2023/05/29 10:43:32;;;;;;;40.00;2.17;;;;;;;24.38;40.48;99831.78;7315223;19;130146;-34
2023/05/29 10:45:57;;;;;;;32.67;1.85;;;;;;;24.44;40.52;99828.53;7314856;19;130488;-38
2023/05/29 10:48:28;;;;;;;20.02;1.23;;;;;;;24.42;41.17;99820.00;7317769;19;128877;-33
2023/05/29 10:50:55;;;;;;;27.00;1.52;;;;;;;24.44;40.85;99822.47;7316424;19;128751;-32
2023/05/29 10:53:25;;;;;;;25.10;1.38;;;;;;;24.35;41.16;99808.44;7317146;19;130190;-38
2023/05/29 10:55:52;;;;;;;35.90;1.98;;;;;;;24.48;40.43;99829.06;7316198;19;130391;-33
2023/05/29 10:58:19;;;;;;;26.05;1.58;;;;;;;24.43;40.78;99832.16;7317121;19;128871;-36
2023/05/29 11:00:46;;;;;;;20.88;1.25;;;;;;;24.43;40.94;99826.91;7316548;19;129767;-35
2023/05/29 11:03:15;;;;;;;23.70;1.33;;;;;;;24.42;40.76;99825.25;7314385;19;130375;-36
2023/05/29 11:06:04;;;;;;;43.42;2.45;;;;;;;24.31;40.65;99804.47;7314626;19;130594;-35
2023/05/29 11:08:37;;;;;;;19.80;1.15;;;;;;;24.37;40.89;99819.63;7316602;19;128924;-32
2023/05/29 11:11:05;;;;;;;33.33;1.80;;;;;;;24.44;40.79;99818.03;7315673;19;129898;-37
2023/05/29 11:13:36;;;;;;;26.17;1.50;;;;;;;24.41;40.57;99817.53;7316476;19;131011;-35
2023/05/29 11:16:14;;;;;;;21.48;1.23;;;;;;;24.45;40.52;99814.44;7315781;19;129781;-34
2023/05/29 11:18:47;;;;;;;21.98;1.25;;;;;;;24.43;40.94;99811.13;7316109;19;128860;-36